sensor_id;sensor_type;location;lat;lon;timestamp;P1;durP1;ratioP1;P2;durP2;ratioP2
44456;SDS011;30159;49.316;8.558;2023-04-03T00:01:58;1.60;;;1.40;;
44456;SDS011;30159;49.316;8.558;2023-04-03T00:04:26;1.80;;;1.70;;
44456;SDS011;30159;49.316;8.558;2023-04-03T00:06:53;4.70;;;1.57;;
44456;SDS011;30159;49.316;8.558;2023-04-03T00:09:19;1.97;;;1.50;;
44456;SDS011;30159;49.316;8.558;2023-04-03T00:11:46;1.70;;;1.60;;
44456;SDS011;30159;49.316;8.558;2023-04-03T00:14:12;1.67;;;1.50;;
44456;SDS011;30159;49.316;8.558;2023-04-03T00:16:42;3.80;;;1.20;;
44456;SDS011;30159;49.316;8.558;2023-04-03T00:19:09;1.50;;;1.40;;
44456;SDS011;30159;49.316;8.558;2023-04-03T00:21:38;1.50;;;1.40;;
44456;SDS011;30159;49.316;8.558;2023-04-03T00:24:05;1.90;;;1.80;;
44456;SDS011;30159;49.316;8.558;2023-04-03T00:26:32;1.70;;;1.60;;
44456;SDS011;30159;49.316;8.558;2023-04-03T00:28:58;1.90;;;1.80;;
44456;SDS011;30159;49.316;8.558;2023-04-03T00:31:25;1.70;;;1.60;;
44456;SDS011;30159;49.316;8.558;2023-04-03T00:33:51;1.50;;;1.40;;
44456;SDS011;30159;49.316;8.558;2023-04-03T00:36:18;1.30;;;1.20;;
44456;SDS011;30159;49.316;8.558;2023-04-03T00:38:46;1.50;;;1.40;;
44456;SDS011;30159;49.316;8.558;2023-04-03T00:41:12;1.60;;;1.30;;
44456;SDS011;30159;49.316;8.558;2023-04-03T00:43:39;4.00;;;1.63;;
44456;SDS011;30159;49.316;8.558;2023-04-03T00:46:05;3.23;;;1.60;;
44456;SDS011;30159;49.316;8.558;2023-04-03T00:48:32;1.60;;;1.50;;
44456;SDS011;30159;49.316;8.558;2023-04-03T00:51:02;1.30;;;1.20;;
44456;SDS011;30159;49.316;8.558;2023-04-03T00:53:33;1.80;;;1.40;;
44456;SDS011;30159;49.316;8.558;2023-04-03T00:56:06;1.40;;;1.30;;
44456;SDS011;30159;49.316;8.558;2023-04-03T00:58:37;1.37;;;1.27;;
44456;SDS011;30159;49.316;8.558;2023-04-03T01:01:07;1.20;;;1.10;;
44456;SDS011;30159;49.316;8.558;2023-04-03T01:03:38;5.30;;;1.53;;
44456;SDS011;30159;49.316;8.558;2023-04-03T01:06:05;3.50;;;1.40;;
44456;SDS011;30159;49.316;8.558;2023-04-03T01:08:31;1.50;;;1.40;;
44456;SDS011;30159;49.316;8.558;2023-04-03T01:10:58;1.23;;;1.13;;
44456;SDS011;30159;49.316;8.558;2023-04-03T01:13:27;1.13;;;1.00;;
44456;SDS011;30159;49.316;8.558;2023-04-03T01:15:55;1.47;;;1.37;;
44456;SDS011;30159;49.316;8.558;2023-04-03T01:18:22;4.90;;;1.20;;
44456;SDS011;30159;49.316;8.558;2023-04-03T01:20:59;1.53;;;1.40;;
44456;SDS011;30159;49.316;8.558;2023-04-03T01:23:48;1.43;;;1.20;;
44456;SDS011;30159;49.316;8.558;2023-04-03T01:26:23;2.23;;;1.40;;
44456;SDS011;30159;49.316;8.558;2023-04-03T01:28:52;1.47;;;1.20;;
44456;SDS011;30159;49.316;8.558;2023-04-03T01:31:21;1.60;;;1.50;;
44456;SDS011;30159;49.316;8.558;2023-04-03T01:33:52;1.97;;;1.10;;
44456;SDS011;30159;49.316;8.558;2023-04-03T01:36:20;2.13;;;1.47;;
44456;SDS011;30159;49.316;8.558;2023-04-03T01:38:49;1.50;;;1.40;;
44456;SDS011;30159;49.316;8.558;2023-04-03T01:41:16;1.50;;;1.40;;
44456;SDS011;30159;49.316;8.558;2023-04-03T01:43:43;1.40;;;1.30;;
44456;SDS011;30159;49.316;8.558;2023-04-03T01:46:09;1.40;;;1.30;;
44456;SDS011;30159;49.316;8.558;2023-04-03T01:48:36;3.70;;;1.20;;
44456;SDS011;30159;49.316;8.558;2023-04-03T01:51:04;1.57;;;1.47;;
44456;SDS011;30159;49.316;8.558;2023-04-03T01:53:31;3.00;;;1.30;;
44456;SDS011;30159;49.316;8.558;2023-04-03T01:55:57;1.53;;;1.20;;
44456;SDS011;30159;49.316;8.558;2023-04-03T01:58:24;1.30;;;1.20;;
44456;SDS011;30159;49.316;8.558;2023-04-03T02:00:50;1.40;;;1.30;;
44456;SDS011;30159;49.316;8.558;2023-04-03T02:03:17;1.20;;;1.10;;
44456;SDS011;30159;49.316;8.558;2023-04-03T02:05:44;1.10;;;1.00;;
44456;SDS011;30159;49.316;8.558;2023-04-03T02:08:11;1.50;;;1.37;;
44456;SDS011;30159;49.316;8.558;2023-04-03T02:10:38;1.43;;;1.33;;
44456;SDS011;30159;49.316;8.558;2023-04-03T02:13:05;1.37;;;1.20;;
44456;SDS011;30159;49.316;8.558;2023-04-03T02:15:32;1.67;;;1.40;;
44456;SDS011;30159;49.316;8.558;2023-04-03T02:17:58;4.23;;;1.40;;
44456;SDS011;30159;49.316;8.558;2023-04-03T02:20:25;1.07;;;1.00;;
44456;SDS011;30159;49.316;8.558;2023-04-03T02:22:51;2.53;;;1.70;;
44456;SDS011;30159;49.316;8.558;2023-04-03T02:25:19;1.40;;;1.30;;
44456;SDS011;30159;49.316;8.558;2023-04-03T02:27:46;2.23;;;1.30;;
44456;SDS011;30159;49.316;8.558;2023-04-03T02:30:13;2.57;;;1.50;;
44456;SDS011;30159;49.316;8.558;2023-04-03T02:32:39;1.50;;;1.40;;
44456;SDS011;30159;49.316;8.558;2023-04-03T02:35:07;3.20;;;1.23;;
44456;SDS011;30159;49.316;8.558;2023-04-03T02:37:34;2.23;;;1.57;;
44456;SDS011;30159;49.316;8.558;2023-04-03T02:40:00;2.20;;;1.40;;
44456;SDS011;30159;49.316;8.558;2023-04-03T02:42:28;2.03;;;1.53;;
44456;SDS011;30159;49.316;8.558;2023-04-03T02:44:55;1.40;;;1.30;;
44456;SDS011;30159;49.316;8.558;2023-04-03T02:47:21;1.60;;;1.50;;
44456;SDS011;30159;49.316;8.558;2023-04-03T02:49:48;1.33;;;1.23;;
44456;SDS011;30159;49.316;8.558;2023-04-03T02:52:15;1.47;;;1.37;;
44456;SDS011;30159;49.316;8.558;2023-04-03T02:54:41;2.83;;;2.63;;
44456;SDS011;30159;49.316;8.558;2023-04-03T02:57:08;1.87;;;1.40;;
44456;SDS011;30159;49.316;8.558;2023-04-03T02:59:36;2.60;;;1.57;;
44456;SDS011;30159;49.316;8.558;2023-04-03T03:02:05;8.70;;;1.90;;
44456;SDS011;30159;49.316;8.558;2023-04-03T03:04:32;1.33;;;1.07;;
44456;SDS011;30159;49.316;8.558;2023-04-03T03:06:58;2.10;;;1.50;;
44456;SDS011;30159;49.316;8.558;2023-04-03T03:09:25;4.17;;;2.00;;
44456;SDS011;30159;49.316;8.558;2023-04-03T03:11:52;1.87;;;1.50;;
44456;SDS011;30159;49.316;8.558;2023-04-03T03:14:18;1.60;;;1.50;;
44456;SDS011;30159;49.316;8.558;2023-04-03T03:16:46;5.67;;;2.43;;
44456;SDS011;30159;49.316;8.558;2023-04-03T03:19:13;2.23;;;2.00;;
44456;SDS011;30159;49.316;8.558;2023-04-03T03:21:39;7.67;;;6.00;;
44456;SDS011;30159;49.316;8.558;2023-04-03T03:24:06;10.30;;;6.57;;
44456;SDS011;30159;49.316;8.558;2023-04-03T03:26:33;1.57;;;1.30;;
44456;SDS011;30159;49.316;8.558;2023-04-03T03:28:59;2.20;;;1.20;;
44456;SDS011;30159;49.316;8.558;2023-04-03T03:31:26;1.33;;;1.17;;
44456;SDS011;30159;49.316;8.558;2023-04-03T03:33:54;1.40;;;1.00;;
44456;SDS011;30159;49.316;8.558;2023-04-03T03:36:20;1.20;;;1.10;;
44456;SDS011;30159;49.316;8.558;2023-04-03T03:38:47;1.20;;;1.10;;
44456;SDS011;30159;49.316;8.558;2023-04-03T03:41:13;1.23;;;1.00;;
44456;SDS011;30159;49.316;8.558;2023-04-03T03:43:40;1.30;;;1.20;;
44456;SDS011;30159;49.316;8.558;2023-04-03T03:46:06;1.30;;;1.20;;
44456;SDS011;30159;49.316;8.558;2023-04-03T03:48:33;7.03;;;4.10;;
44456;SDS011;30159;49.316;8.558;2023-04-03T03:51:01;5.87;;;4.70;;
44456;SDS011;30159;49.316;8.558;2023-04-03T03:53:27;2.93;;;2.33;;
44456;SDS011;30159;49.316;8.558;2023-04-03T03:55:54;2.13;;;1.70;;
44456;SDS011;30159;49.316;8.558;2023-04-03T03:58:20;2.03;;;1.40;;
44456;SDS011;30159;49.316;8.558;2023-04-03T04:00:47;1.90;;;1.50;;
44456;SDS011;30159;49.316;8.558;2023-04-03T04:03:13;1.60;;;1.50;;
44456;SDS011;30159;49.316;8.558;2023-04-03T04:05:40;2.80;;;2.60;;
44456;SDS011;30159;49.316;8.558;2023-04-03T04:08:08;2.70;;;2.10;;
44456;SDS011;30159;49.316;8.558;2023-04-03T04:10:35;2.20;;;2.00;;
44456;SDS011;30159;49.316;8.558;2023-04-03T04:13:03;2.17;;;1.97;;
44456;SDS011;30159;49.316;8.558;2023-04-03T04:15:30;1.77;;;1.67;;
44456;SDS011;30159;49.316;8.558;2023-04-03T04:17:56;2.07;;;1.93;;
44456;SDS011;30159;49.316;8.558;2023-04-03T04:20:23;1.70;;;1.60;;
44456;SDS011;30159;49.316;8.558;2023-04-03T04:22:49;1.63;;;1.50;;
44456;SDS011;30159;49.316;8.558;2023-04-03T04:25:17;2.20;;;1.60;;
44456;SDS011;30159;49.316;8.558;2023-04-03T04:27:44;2.37;;;2.17;;
44456;SDS011;30159;49.316;8.558;2023-04-03T04:30:11;2.20;;;1.73;;
44456;SDS011;30159;49.316;8.558;2023-04-03T04:32:38;1.90;;;1.60;;
44456;SDS011;30159;49.316;8.558;2023-04-03T04:35:04;3.10;;;1.50;;
44456;SDS011;30159;49.316;8.558;2023-04-03T04:37:31;2.83;;;1.97;;
44456;SDS011;30159;49.316;8.558;2023-04-03T04:39:58;1.33;;;1.20;;
44456;SDS011;30159;49.316;8.558;2023-04-03T04:42:26;1.50;;;1.40;;
44456;SDS011;30159;49.316;8.558;2023-04-03T04:44:52;1.50;;;1.40;;
44456;SDS011;30159;49.316;8.558;2023-04-03T04:47:19;3.93;;;1.40;;
44456;SDS011;30159;49.316;8.558;2023-04-03T04:49:45;1.17;;;1.07;;
44456;SDS011;30159;49.316;8.558;2023-04-03T04:52:13;1.57;;;1.30;;
44456;SDS011;30159;49.316;8.558;2023-04-03T04:54:39;1.40;;;1.30;;
44456;SDS011;30159;49.316;8.558;2023-04-03T04:57:08;3.57;;;1.43;;
44456;SDS011;30159;49.316;8.558;2023-04-03T04:59:37;1.73;;;1.50;;
44456;SDS011;30159;49.316;8.558;2023-04-03T05:02:03;1.30;;;1.20;;
44456;SDS011;30159;49.316;8.558;2023-04-03T05:04:30;1.43;;;1.33;;
44456;SDS011;30159;49.316;8.558;2023-04-03T05:06:56;3.20;;;1.40;;
44456;SDS011;30159;49.316;8.558;2023-04-03T05:09:24;1.60;;;1.50;;
44456;SDS011;30159;49.316;8.558;2023-04-03T05:11:50;1.77;;;1.57;;
44456;SDS011;30159;49.316;8.558;2023-04-03T05:14:17;2.10;;;1.50;;
44456;SDS011;30159;49.316;8.558;2023-04-03T05:16:45;2.40;;;1.63;;
44456;SDS011;30159;49.316;8.558;2023-04-03T05:19:12;1.40;;;1.30;;
44456;SDS011;30159;49.316;8.558;2023-04-03T05:21:39;2.70;;;1.47;;
44456;SDS011;30159;49.316;8.558;2023-04-03T05:24:06;1.60;;;1.50;;
44456;SDS011;30159;49.316;8.558;2023-04-03T05:26:34;2.00;;;1.60;;
44456;SDS011;30159;49.316;8.558;2023-04-03T05:29:01;1.30;;;1.20;;
44456;SDS011;30159;49.316;8.558;2023-04-03T05:31:27;2.77;;;1.60;;
44456;SDS011;30159;49.316;8.558;2023-04-03T05:33:56;2.90;;;1.60;;
44456;SDS011;30159;49.316;8.558;2023-04-03T05:36:24;1.83;;;1.70;;
44456;SDS011;30159;49.316;8.558;2023-04-03T05:38:50;1.70;;;1.60;;
44456;SDS011;30159;49.316;8.558;2023-04-03T05:41:17;1.67;;;1.40;;
44456;SDS011;30159;49.316;8.558;2023-04-03T05:43:44;1.93;;;1.77;;
44456;SDS011;30159;49.316;8.558;2023-04-03T05:46:10;1.50;;;1.40;;
44456;SDS011;30159;49.316;8.558;2023-04-03T05:48:38;1.40;;;1.30;;
44456;SDS011;30159;49.316;8.558;2023-04-03T05:51:06;2.10;;;1.70;;
44456;SDS011;30159;49.316;8.558;2023-04-03T05:53:39;2.43;;;1.60;;
44456;SDS011;30159;49.316;8.558;2023-04-03T05:56:06;1.60;;;1.50;;
44456;SDS011;30159;49.316;8.558;2023-04-03T05:58:33;2.73;;;1.90;;
44456;SDS011;30159;49.316;8.558;2023-04-03T06:00:59;1.53;;;1.43;;
44456;SDS011;30159;49.316;8.558;2023-04-03T06:03:26;2.37;;;1.60;;
44456;SDS011;30159;49.316;8.558;2023-04-03T06:05:53;1.60;;;1.50;;
44456;SDS011;30159;49.316;8.558;2023-04-03T06:08:21;1.77;;;1.67;;
44456;SDS011;30159;49.316;8.558;2023-04-03T06:10:48;2.77;;;2.57;;
44456;SDS011;30159;49.316;8.558;2023-04-03T06:13:15;2.00;;;1.80;;
44456;SDS011;30159;49.316;8.558;2023-04-03T06:15:42;3.53;;;2.00;;
44456;SDS011;30159;49.316;8.558;2023-04-03T06:18:09;3.70;;;2.10;;
44456;SDS011;30159;49.316;8.558;2023-04-03T06:20:35;2.00;;;1.80;;
44456;SDS011;30159;49.316;8.558;2023-04-03T06:23:02;3.57;;;1.70;;
44456;SDS011;30159;49.316;8.558;2023-04-03T06:25:30;3.70;;;1.80;;
44456;SDS011;30159;49.316;8.558;2023-04-03T06:27:56;1.93;;;1.60;;
44456;SDS011;30159;49.316;8.558;2023-04-03T06:30:23;2.00;;;1.90;;
44456;SDS011;30159;49.316;8.558;2023-04-03T06:32:50;1.80;;;1.70;;
44456;SDS011;30159;49.316;8.558;2023-04-03T06:35:17;2.00;;;1.80;;
44456;SDS011;30159;49.316;8.558;2023-04-03T06:37:43;2.50;;;2.00;;
44456;SDS011;30159;49.316;8.558;2023-04-03T06:40:12;2.07;;;1.63;;
44456;SDS011;30159;49.316;8.558;2023-04-03T06:42:45;2.00;;;1.90;;
44456;SDS011;30159;49.316;8.558;2023-04-03T06:45:12;1.77;;;1.67;;
44456;SDS011;30159;49.316;8.558;2023-04-03T06:47:38;2.13;;;1.93;;
44456;SDS011;30159;49.316;8.558;2023-04-03T06:50:06;1.90;;;1.80;;
44456;SDS011;30159;49.316;8.558;2023-04-03T06:52:34;1.50;;;1.40;;
44456;SDS011;30159;49.316;8.558;2023-04-03T06:55:00;2.53;;;2.33;;
44456;SDS011;30159;49.316;8.558;2023-04-03T06:57:27;2.30;;;1.70;;
44456;SDS011;30159;49.316;8.558;2023-04-03T06:59:55;2.23;;;2.03;;
44456;SDS011;30159;49.316;8.558;2023-04-03T07:02:22;1.80;;;1.70;;
44456;SDS011;30159;49.316;8.558;2023-04-03T07:04:49;2.57;;;2.03;;
44456;SDS011;30159;49.316;8.558;2023-04-03T07:07:15;2.57;;;2.37;;
44456;SDS011;30159;49.316;8.558;2023-04-03T07:09:42;2.37;;;1.90;;
44456;SDS011;30159;49.316;8.558;2023-04-03T07:12:09;2.50;;;1.70;;
44456;SDS011;30159;49.316;8.558;2023-04-03T07:14:35;1.93;;;1.70;;
44456;SDS011;30159;49.316;8.558;2023-04-03T07:17:03;5.73;;;1.80;;
44456;SDS011;30159;49.316;8.558;2023-04-03T07:19:30;2.33;;;1.67;;
44456;SDS011;30159;49.316;8.558;2023-04-03T07:21:57;2.00;;;1.53;;
44456;SDS011;30159;49.316;8.558;2023-04-03T07:24:23;1.60;;;1.50;;
44456;SDS011;30159;49.316;8.558;2023-04-03T07:26:51;1.93;;;1.50;;
44456;SDS011;30159;49.316;8.558;2023-04-03T07:29:19;1.57;;;1.47;;
44456;SDS011;30159;49.316;8.558;2023-04-03T07:31:46;5.00;;;2.00;;
44456;SDS011;30159;49.316;8.558;2023-04-03T07:34:14;1.60;;;1.50;;
44456;SDS011;30159;49.316;8.558;2023-04-03T07:36:43;2.27;;;1.90;;
44456;SDS011;30159;49.316;8.558;2023-04-03T07:39:10;2.20;;;1.47;;
44456;SDS011;30159;49.316;8.558;2023-04-03T07:41:36;1.80;;;1.60;;
44456;SDS011;30159;49.316;8.558;2023-04-03T07:44:03;1.87;;;1.67;;
44456;SDS011;30159;49.316;8.558;2023-04-03T07:46:30;1.70;;;1.60;;
44456;SDS011;30159;49.316;8.558;2023-04-03T07:48:57;4.10;;;1.80;;
44456;SDS011;30159;49.316;8.558;2023-04-03T07:51:25;3.97;;;1.57;;
44456;SDS011;30159;49.316;8.558;2023-04-03T07:53:53;1.93;;;1.30;;
44456;SDS011;30159;49.316;8.558;2023-04-03T07:56:20;1.83;;;1.53;;
44456;SDS011;30159;49.316;8.558;2023-04-03T07:58:47;3.67;;;1.70;;
44456;SDS011;30159;49.316;8.558;2023-04-03T08:01:14;1.70;;;1.60;;
44456;SDS011;30159;49.316;8.558;2023-04-03T08:03:41;2.03;;;1.73;;
44456;SDS011;30159;49.316;8.558;2023-04-03T08:06:07;1.73;;;1.60;;
44456;SDS011;30159;49.316;8.558;2023-04-03T08:08:36;1.70;;;1.50;;
44456;SDS011;30159;49.316;8.558;2023-04-03T08:11:03;1.73;;;1.60;;
44456;SDS011;30159;49.316;8.558;2023-04-03T08:13:31;1.87;;;1.50;;
44456;SDS011;30159;49.316;8.558;2023-04-03T08:15:57;2.40;;;1.43;;
44456;SDS011;30159;49.316;8.558;2023-04-03T08:18:24;1.30;;;1.20;;
44456;SDS011;30159;49.316;8.558;2023-04-03T08:20:51;1.40;;;1.17;;
44456;SDS011;30159;49.316;8.558;2023-04-03T08:23:18;1.50;;;1.40;;
44456;SDS011;30159;49.316;8.558;2023-04-03T08:25:46;1.60;;;1.50;;
44456;SDS011;30159;49.316;8.558;2023-04-03T08:28:13;1.40;;;1.30;;
44456;SDS011;30159;49.316;8.558;2023-04-03T08:30:40;1.63;;;1.50;;
44456;SDS011;30159;49.316;8.558;2023-04-03T08:33:07;1.50;;;1.40;;
44456;SDS011;30159;49.316;8.558;2023-04-03T08:35:37;2.83;;;1.30;;
44456;SDS011;30159;49.316;8.558;2023-04-03T08:38:05;1.23;;;1.13;;
44456;SDS011;30159;49.316;8.558;2023-04-03T08:40:31;2.10;;;1.50;;
44456;SDS011;30159;49.316;8.558;2023-04-03T08:43:02;2.13;;;1.47;;
44456;SDS011;30159;49.316;8.558;2023-04-03T08:45:48;1.40;;;1.30;;
44456;SDS011;30159;49.316;8.558;2023-04-03T08:48:18;1.20;;;1.10;;
44456;SDS011;30159;49.316;8.558;2023-04-03T08:50:47;1.27;;;1.17;;
44456;SDS011;30159;49.316;8.558;2023-04-03T08:53:16;2.00;;;1.30;;
44456;SDS011;30159;49.316;8.558;2023-04-03T08:55:45;3.10;;;1.20;;
44456;SDS011;30159;49.316;8.558;2023-04-03T08:58:16;2.43;;;1.80;;
44456;SDS011;30159;49.316;8.558;2023-04-03T09:00:45;1.30;;;1.20;;
44456;SDS011;30159;49.316;8.558;2023-04-03T09:03:16;2.40;;;1.20;;
44456;SDS011;30159;49.316;8.558;2023-04-03T09:05:45;1.50;;;1.20;;
44456;SDS011;30159;49.316;8.558;2023-04-03T09:08:18;1.50;;;1.40;;
44456;SDS011;30159;49.316;8.558;2023-04-03T09:10:51;1.03;;;0.90;;
44456;SDS011;30159;49.316;8.558;2023-04-03T09:13:29;2.03;;;1.10;;
44456;SDS011;30159;49.316;8.558;2023-04-03T09:15:59;2.50;;;1.10;;
44456;SDS011;30159;49.316;8.558;2023-04-03T09:18:32;1.10;;;1.00;;
44456;SDS011;30159;49.316;8.558;2023-04-03T09:21:07;2.40;;;1.20;;
44456;SDS011;30159;49.316;8.558;2023-04-03T09:23:42;1.83;;;1.03;;
44456;SDS011;30159;49.316;8.558;2023-04-03T09:26:13;1.37;;;1.10;;
44456;SDS011;30159;49.316;8.558;2023-04-03T09:28:44;3.20;;;1.33;;
44456;SDS011;30159;49.316;8.558;2023-04-03T09:31:14;1.73;;;1.43;;
44456;SDS011;30159;49.316;8.558;2023-04-03T09:33:45;1.30;;;1.00;;
44456;SDS011;30159;49.316;8.558;2023-04-03T09:36:13;1.47;;;1.37;;
44456;SDS011;30159;49.316;8.558;2023-04-03T09:39:03;0.90;;;0.80;;
44456;SDS011;30159;49.316;8.558;2023-04-03T09:41:30;1.00;;;0.90;;
44456;SDS011;30159;49.316;8.558;2023-04-03T09:43:59;1.10;;;1.00;;
44456;SDS011;30159;49.316;8.558;2023-04-03T09:46:29;2.30;;;1.00;;
44456;SDS011;30159;49.316;8.558;2023-04-03T09:49:01;1.10;;;0.90;;
44456;SDS011;30159;49.316;8.558;2023-04-03T09:51:30;1.30;;;1.20;;
44456;SDS011;30159;49.316;8.558;2023-04-03T09:53:57;1.10;;;0.90;;
44456;SDS011;30159;49.316;8.558;2023-04-03T09:56:25;1.60;;;1.10;;
44456;SDS011;30159;49.316;8.558;2023-04-03T09:59:08;0.97;;;0.90;;
44456;SDS011;30159;49.316;8.558;2023-04-03T10:01:42;1.13;;;1.03;;
44456;SDS011;30159;49.316;8.558;2023-04-03T10:04:22;1.20;;;1.10;;
44456;SDS011;30159;49.316;8.558;2023-04-03T10:06:50;2.10;;;0.90;;
44456;SDS011;30159;49.316;8.558;2023-04-03T10:09:19;1.07;;;0.80;;
44456;SDS011;30159;49.316;8.558;2023-04-03T10:11:57;1.10;;;1.00;;
44456;SDS011;30159;49.316;8.558;2023-04-03T10:14:27;1.00;;;0.93;;
44456;SDS011;30159;49.316;8.558;2023-04-03T10:16:56;1.23;;;1.13;;
44456;SDS011;30159;49.316;8.558;2023-04-03T10:19:32;1.00;;;0.90;;
44456;SDS011;30159;49.316;8.558;2023-04-03T10:22:04;1.20;;;0.93;;
44456;SDS011;30159;49.316;8.558;2023-04-03T10:24:39;1.20;;;1.00;;
44456;SDS011;30159;49.316;8.558;2023-04-03T10:27:15;1.10;;;0.80;;
44456;SDS011;30159;49.316;8.558;2023-04-03T10:29:49;0.80;;;0.80;;
44456;SDS011;30159;49.316;8.558;2023-04-03T10:32:28;1.20;;;1.10;;
44456;SDS011;30159;49.316;8.558;2023-04-03T10:35:08;1.20;;;1.10;;
44456;SDS011;30159;49.316;8.558;2023-04-03T10:37:47;1.03;;;0.90;;
44456;SDS011;30159;49.316;8.558;2023-04-03T10:40:30;1.20;;;1.10;;
44456;SDS011;30159;49.316;8.558;2023-04-03T10:43:02;1.00;;;0.90;;
44456;SDS011;30159;49.316;8.558;2023-04-03T10:45:43;1.20;;;0.87;;
44456;SDS011;30159;49.316;8.558;2023-04-03T10:48:18;0.90;;;0.80;;
44456;SDS011;30159;49.316;8.558;2023-04-03T10:50:58;1.07;;;0.97;;
44456;SDS011;30159;49.316;8.558;2023-04-03T10:53:34;1.27;;;1.00;;
44456;SDS011;30159;49.316;8.558;2023-04-03T10:56:07;0.80;;;0.70;;
44456;SDS011;30159;49.316;8.558;2023-04-03T10:58:39;1.03;;;0.90;;
44456;SDS011;30159;49.316;8.558;2023-04-03T11:01:11;1.07;;;0.90;;
44456;SDS011;30159;49.316;8.558;2023-04-03T11:03:41;1.20;;;1.10;;
44456;SDS011;30159;49.316;8.558;2023-04-03T11:06:12;2.10;;;0.90;;
44456;SDS011;30159;49.316;8.558;2023-04-03T11:08:42;1.77;;;0.90;;
44456;SDS011;30159;49.316;8.558;2023-04-03T11:11:13;1.00;;;0.90;;
44456;SDS011;30159;49.316;8.558;2023-04-03T11:13:43;2.63;;;1.10;;
44456;SDS011;30159;49.316;8.558;2023-04-03T11:16:17;1.00;;;0.90;;
44456;SDS011;30159;49.316;8.558;2023-04-03T11:18:48;1.10;;;0.97;;
44456;SDS011;30159;49.316;8.558;2023-04-03T11:21:19;1.03;;;0.93;;
44456;SDS011;30159;49.316;8.558;2023-04-03T11:23:49;1.07;;;0.90;;
44456;SDS011;30159;49.316;8.558;2023-04-03T11:26:18;1.47;;;0.90;;
44456;SDS011;30159;49.316;8.558;2023-04-03T11:28:51;1.50;;;1.07;;
44456;SDS011;30159;49.316;8.558;2023-04-03T11:31:25;1.70;;;0.90;;
44456;SDS011;30159;49.316;8.558;2023-04-03T11:34:13;1.23;;;1.13;;
44456;SDS011;30159;49.316;8.558;2023-04-03T11:36:49;1.20;;;1.10;;
44456;SDS011;30159;49.316;8.558;2023-04-03T11:39:21;0.83;;;0.80;;
44456;SDS011;30159;49.316;8.558;2023-04-03T11:41:50;1.20;;;1.10;;
44456;SDS011;30159;49.316;8.558;2023-04-03T11:44:29;1.17;;;0.90;;
44456;SDS011;30159;49.316;8.558;2023-04-03T11:47:00;0.80;;;0.80;;
44456;SDS011;30159;49.316;8.558;2023-04-03T11:58:21;1.20;;;1.00;;
44456;SDS011;30159;49.316;8.558;2023-04-03T12:01:04;1.10;;;1.00;;
44456;SDS011;30159;49.316;8.558;2023-04-03T12:06:43;1.47;;;1.20;;
44456;SDS011;30159;49.316;8.558;2023-04-03T12:09:31;1.43;;;1.33;;
44456;SDS011;30159;49.316;8.558;2023-04-03T12:12:01;1.50;;;1.13;;
44456;SDS011;30159;49.316;8.558;2023-04-03T12:14:50;1.50;;;1.00;;
44456;SDS011;30159;49.316;8.558;2023-04-03T12:17:20;1.20;;;1.10;;
44456;SDS011;30159;49.316;8.558;2023-04-03T12:19:51;1.33;;;1.00;;
44456;SDS011;30159;49.316;8.558;2023-04-03T12:22:20;1.70;;;1.23;;
44456;SDS011;30159;49.316;8.558;2023-04-03T12:24:48;1.10;;;1.00;;
44456;SDS011;30159;49.316;8.558;2023-04-03T12:27:20;1.30;;;1.10;;
44456;SDS011;30159;49.316;8.558;2023-04-03T12:29:51;1.00;;;0.90;;
44456;SDS011;30159;49.316;8.558;2023-04-03T12:32:28;1.23;;;1.07;;
44456;SDS011;30159;49.316;8.558;2023-04-03T12:35:12;1.30;;;1.10;;
44456;SDS011;30159;49.316;8.558;2023-04-03T12:37:54;1.43;;;1.03;;
44456;SDS011;30159;49.316;8.558;2023-04-03T12:40:47;1.20;;;1.10;;
44456;SDS011;30159;49.316;8.558;2023-04-03T12:43:21;1.50;;;1.20;;
44456;SDS011;30159;49.316;8.558;2023-04-03T12:46:04;1.33;;;1.10;;
44456;SDS011;30159;49.316;8.558;2023-04-03T12:48:37;1.20;;;1.03;;
44456;SDS011;30159;49.316;8.558;2023-04-03T12:51:13;2.83;;;1.50;;
44456;SDS011;30159;49.316;8.558;2023-04-03T12:53:42;2.70;;;1.10;;
44456;SDS011;30159;49.316;8.558;2023-04-03T12:56:21;1.27;;;1.10;;
44456;SDS011;30159;49.316;8.558;2023-04-03T12:58:51;1.30;;;1.20;;
44456;SDS011;30159;49.316;8.558;2023-04-03T13:01:18;1.50;;;1.23;;
44456;SDS011;30159;49.316;8.558;2023-04-03T13:03:48;1.40;;;1.30;;
44456;SDS011;30159;49.316;8.558;2023-04-03T13:06:17;1.40;;;1.20;;
44456;SDS011;30159;49.316;8.558;2023-04-03T13:08:51;1.10;;;1.00;;
44456;SDS011;30159;49.316;8.558;2023-04-03T13:11:18;1.20;;;1.10;;
44456;SDS011;30159;49.316;8.558;2023-04-03T13:13:54;1.47;;;1.37;;
44456;SDS011;30159;49.316;8.558;2023-04-03T13:16:24;1.30;;;1.10;;
44456;SDS011;30159;49.316;8.558;2023-04-03T13:18:51;1.37;;;1.27;;
44456;SDS011;30159;49.316;8.558;2023-04-03T13:21:20;1.47;;;1.30;;
44456;SDS011;30159;49.316;8.558;2023-04-03T13:23:52;1.83;;;1.20;;
44456;SDS011;30159;49.316;8.558;2023-04-03T13:26:23;1.20;;;1.10;;
44456;SDS011;30159;49.316;8.558;2023-04-03T13:28:53;1.40;;;1.30;;
44456;SDS011;30159;49.316;8.558;2023-04-03T13:31:22;1.20;;;1.00;;
44456;SDS011;30159;49.316;8.558;2023-04-03T13:33:54;1.57;;;1.47;;
44456;SDS011;30159;49.316;8.558;2023-04-03T13:36:24;1.30;;;1.20;;
44456;SDS011;30159;49.316;8.558;2023-04-03T13:39:05;4.07;;;1.40;;
44456;SDS011;30159;49.316;8.558;2023-04-03T13:41:34;1.57;;;1.43;;
44456;SDS011;30159;49.316;8.558;2023-04-03T13:44:14;1.33;;;1.20;;
44456;SDS011;30159;49.316;8.558;2023-04-03T13:46:42;1.97;;;1.33;;
44456;SDS011;30159;49.316;8.558;2023-04-03T13:49:17;2.20;;;1.10;;
44456;SDS011;30159;49.316;8.558;2023-04-03T13:51:48;1.83;;;1.20;;
44456;SDS011;30159;49.316;8.558;2023-04-03T13:54:19;1.20;;;1.10;;
44456;SDS011;30159;49.316;8.558;2023-04-03T13:56:52;1.57;;;1.30;;
44456;SDS011;30159;49.316;8.558;2023-04-03T13:59:23;1.50;;;1.40;;
44456;SDS011;30159;49.316;8.558;2023-04-03T14:01:54;1.30;;;1.10;;
44456;SDS011;30159;49.316;8.558;2023-04-03T14:04:33;2.37;;;1.20;;
44456;SDS011;30159;49.316;8.558;2023-04-03T14:07:11;1.20;;;1.10;;
44456;SDS011;30159;49.316;8.558;2023-04-03T14:09:40;1.23;;;1.10;;
44456;SDS011;30159;49.316;8.558;2023-04-03T14:12:08;1.27;;;1.17;;
44456;SDS011;30159;49.316;8.558;2023-04-03T14:14:40;0.90;;;0.90;;
44456;SDS011;30159;49.316;8.558;2023-04-03T14:17:10;1.20;;;1.10;;
44456;SDS011;30159;49.316;8.558;2023-04-03T14:19:42;1.20;;;1.10;;
44456;SDS011;30159;49.316;8.558;2023-04-03T14:22:11;1.30;;;1.20;;
44456;SDS011;30159;49.316;8.558;2023-04-03T14:24:42;1.30;;;1.10;;
44456;SDS011;30159;49.316;8.558;2023-04-03T14:27:11;1.20;;;1.10;;
44456;SDS011;30159;49.316;8.558;2023-04-03T14:29:41;1.10;;;1.00;;
44456;SDS011;30159;49.316;8.558;2023-04-03T14:32:10;1.43;;;1.07;;
44456;SDS011;30159;49.316;8.558;2023-04-03T14:34:37;1.17;;;1.07;;
44456;SDS011;30159;49.316;8.558;2023-04-03T14:37:04;0.90;;;0.90;;
44456;SDS011;30159;49.316;8.558;2023-04-03T14:39:31;1.23;;;1.13;;
44456;SDS011;30159;49.316;8.558;2023-04-03T14:41:59;1.30;;;1.20;;
44456;SDS011;30159;49.316;8.558;2023-04-03T14:44:25;1.83;;;1.20;;
44456;SDS011;30159;49.316;8.558;2023-04-03T14:46:52;3.37;;;1.30;;
44456;SDS011;30159;49.316;8.558;2023-04-03T14:49:20;1.23;;;1.13;;
44456;SDS011;30159;49.316;8.558;2023-04-03T14:51:48;1.10;;;1.00;;
44456;SDS011;30159;49.316;8.558;2023-04-03T14:54:17;1.13;;;1.03;;
44456;SDS011;30159;49.316;8.558;2023-04-03T14:56:46;1.83;;;1.50;;
44456;SDS011;30159;49.316;8.558;2023-04-03T14:59:15;2.17;;;1.23;;
44456;SDS011;30159;49.316;8.558;2023-04-03T15:01:42;2.30;;;1.30;;
44456;SDS011;30159;49.316;8.558;2023-04-03T15:04:10;1.20;;;1.10;;
44456;SDS011;30159;49.316;8.558;2023-04-03T15:06:38;1.30;;;1.10;;
44456;SDS011;30159;49.316;8.558;2023-04-03T15:09:05;2.13;;;1.60;;
44456;SDS011;30159;49.316;8.558;2023-04-03T15:11:31;1.03;;;0.93;;
44456;SDS011;30159;49.316;8.558;2023-04-03T15:13:58;0.90;;;0.90;;